Time,TemperatureF,DewpointF,PressureIn,WindDirection,WindDirectionDegrees,WindSpeedMPH,WindSpeedGustMPH,Humidity,HourlyPrecipIn,Conditions,Clouds,dailyrainin,SoftwareType,DateUTC
2013-03-21 00:00:00,8.6,0.2,30.15,WNW,293,0.4,1.6,68,0.00,,,0.00,WUHU216HW,2013-03-21 05:00:00,
2013-03-21 00:05:00,8.8,1.1,30.16,West,270,0.0,1.8,70,0.00,,,0.00,WUHU216HW,2013-03-21 05:05:00,
2013-03-21 00:10:00,8.8,0.7,30.16,West,270,0.9,1.8,69,0.00,,,0.00,WUHU216HW,2013-03-21 05:10:00,
2013-03-21 00:15:00,8.8,0.7,30.16,West,270,0.4,1.1,69,0.00,,,0.00,WUHU216HW,2013-03-21 05:15:00,
2013-03-21 00:20:00,8.8,0.7,30.15,West,270,0.7,0.9,69,0.00,,,0.00,WUHU216HW,2013-03-21 05:20:00,
2013-03-21 00:25:00,8.6,0.5,30.15,WSW,248,0.9,1.1,69,0.00,,,0.00,WUHU216HW,2013-03-21 05:25:00,
2013-03-21 00:30:00,8.5,0.4,30.15,WSW,248,0.4,1.1,69,0.00,,,0.00,WUHU216HW,2013-03-21 05:30:00,
2013-03-21 00:35:00,8.3,0.5,30.15,WSW,248,0.4,1.1,70,0.00,,,0.00,WUHU216HW,2013-03-21 05:35:00,
2013-03-21 00:40:00,8.5,0.7,30.15,WNW,293,0.2,1.1,70,0.00,,,0.00,WUHU216HW,2013-03-21 05:40:00,
2013-03-21 00:45:00,8.5,0.4,30.15,SSW,203,0.0,1.1,69,0.00,,,0.00,WUHU216HW,2013-03-21 05:45:00,
2013-03-21 00:50:00,8.3,0.2,30.15,SE,135,0.0,0.4,69,0.00,,,0.00,WUHU216HW,2013-03-21 05:50:00,
2013-03-21 00:55:00,8.3,-0.2,30.15,East,90,0.0,0.4,68,0.00,,,0.00,WUHU216HW,2013-03-21 05:55:00,
2013-03-21 01:00:00,8.1,-0.3,30.14,WSW,248,0.4,0.4,68,0.00,,,0.00,WUHU216HW,2013-03-21 06:00:00,
2013-03-21 01:05:00,8.3,-0.2,30.15,West,270,0.0,0.7,68,0.00,,,0.00,WUHU216HW,2013-03-21 06:05:00,
2013-03-21 01:10:00,8.3,-0.2,30.14,NNE,23,0.0,0.7,68,0.00,,,0.00,WUHU216HW,2013-03-21 06:10:00,
2013-03-21 01:15:00,8.1,-0.3,30.14,NNE,23,0.0,0.4,68,0.00,,,0.00,WUHU216HW,2013-03-21 06:15:00,
2013-03-21 01:20:00,8.1,-0.3,30.14,ESE,113,0.0,0.4,68,0.00,,,0.00,WUHU216HW,2013-03-21 06:20:00,
2013-03-21 01:25:00,7.9,-0.4,30.14,NNE,23,0.2,0.4,68,0.00,,,0.00,WUHU216HW,2013-03-21 06:25:00,
2013-03-21 01:30:00,7.7,-0.6,30.14,NNE,23,0.0,0.2,68,0.00,,,0.00,WUHU216HW,2013-03-21 06:30:00,
2013-03-21 01:35:00,7.7,-0.6,30.14,West,270,0.0,0.4,68,0.00,,,0.00,WUHU216HW,2013-03-21 06:35:00,
2013-03-21 01:40:00,7.6,-0.8,30.14,West,270,0.0,0.4,68,0.00,,,0.00,WUHU216HW,2013-03-21 06:40:00,
2013-03-21 01:45:00,7.6,-0.8,30.13,NNE,23,0.0,0.4,68,0.00,,,0.00,WUHU216HW,2013-03-21 06:45:00,
2013-03-21 01:50:00,7.6,-0.8,30.13,NE,45,0.0,0.4,68,0.00,,,0.00,WUHU216HW,2013-03-21 06:50:00,
2013-03-21 01:55:00,7.4,-1.0,30.13,ESE,113,0.4,0.4,68,0.00,,,0.00,WUHU216HW,2013-03-21 06:55:00,
2013-03-21 02:00:00,7.6,-0.8,30.14,NE,45,0.0,0.4,68,0.00,,,0.00,WUHU216HW,2013-03-21 07:00:00,
2013-03-21 02:05:00,7.4,-1.0,30.13,ENE,68,0.0,0.4,68,0.00,,,0.00,WUHU216HW,2013-03-21 07:05:00,
2013-03-21 02:10:00,7.2,-1.2,30.14,ENE,68,0.0,0.4,68,0.00,,,0.00,WUHU216HW,2013-03-21 07:10:00,
2013-03-21 02:15:00,7.2,-1.2,30.14,SE,135,0.4,0.4,68,0.00,,,0.00,WUHU216HW,2013-03-21 07:15:00,
2013-03-21 02:20:00,7.0,-1.3,30.13,NW,315,0.0,0.4,68,0.00,,,0.00,WUHU216HW,2013-03-21 07:20:00,
2013-03-21 02:25:00,7.0,-1.3,30.13,NW,315,0.0,0.4,68,0.00,,,0.00,WUHU216HW,2013-03-21 07:25:00,
2013-03-21 02:30:00,6.8,-1.5,30.14,NW,315,0.0,0.4,68,0.00,,,0.00,WUHU216HW,2013-03-21 07:30:00,
2013-03-21 02:35:00,6.7,-1.7,30.13,WNW,293,0.0,0.2,68,0.00,,,0.00,WUHU216HW,2013-03-21 07:35:00,
2013-03-21 02:40:00,6.5,-1.9,30.13,ENE,68,0.0,0.0,68,0.00,,,0.00,WUHU216HW,2013-03-21 07:40:00,
2013-03-21 02:45:00,6.3,-2.1,30.13,NW,315,0.0,0.2,68,0.00,,,0.00,WUHU216HW,2013-03-21 07:45:00,
2013-03-21 02:50:00,6.1,-2.2,30.13,NW,315,0.0,0.2,68,0.00,,,0.00,WUHU216HW,2013-03-21 07:50:00,
2013-03-21 02:55:00,5.9,-2.4,30.13,NW,315,0.0,0.0,68,0.00,,,0.00,WUHU216HW,2013-03-21 07:55:00,
2013-03-21 03:00:00,5.6,-3.1,30.13,NW,315,0.0,0.0,67,0.00,,,0.00,WUHU216HW,2013-03-21 08:00:00,
2013-03-21 03:05:00,5.4,-3.3,30.13,NW,315,0.0,0.0,67,0.00,,,0.00,WUHU216HW,2013-03-21 08:05:00,
2013-03-21 03:10:00,4.9,-3.9,30.13,NW,315,0.0,0.0,67,0.00,,,0.00,WUHU216HW,2013-03-21 08:10:00,
2013-03-21 03:15:00,4.9,-3.5,30.13,NNE,23,0.0,0.2,68,0.00,,,0.00,WUHU216HW,2013-03-21 08:15:00,
2013-03-21 03:20:00,4.7,-3.3,30.13,NNE,23,0.0,0.2,69,0.00,,,0.00,WUHU216HW,2013-03-21 08:20:00,
2013-03-21 03:25:00,5.0,-2.7,30.13,NNE,23,0.0,0.0,70,0.00,,,0.00,WUHU216HW,2013-03-21 08:25:00,
2013-03-21 03:30:00,5.2,-2.5,30.13,NNW,338,0.0,0.2,70,0.00,,,0.00,WUHU216HW,2013-03-21 08:30:00,
2013-03-21 03:35:00,5.0,-3.1,30.13,WNW,293,0.0,0.2,69,0.00,,,0.00,WUHU216HW,2013-03-21 08:35:00,
2013-03-21 03:40:00,4.9,-2.9,30.13,WNW,293,0.0,0.2,70,0.00,,,0.00,WUHU216HW,2013-03-21 08:40:00,
2013-03-21 03:45:00,4.9,-2.9,30.13,WNW,293,0.0,0.0,70,0.00,,,0.00,WUHU216HW,2013-03-21 08:45:00,
2013-03-21 03:50:00,4.7,-3.1,30.13,WNW,293,0.0,0.2,70,0.00,,,0.00,WUHU216HW,2013-03-21 08:50:00,
2013-03-21 03:55:00,4.7,-2.7,30.13,WNW,293,0.0,0.4,71,0.00,,,0.00,WUHU216HW,2013-03-21 08:55:00,
2013-03-21 04:00:00,4.7,-2.7,30.13,West,270,0.0,0.4,71,0.00,,,0.00,WUHU216HW,2013-03-21 09:00:00,
2013-03-21 04:05:00,4.3,-3.3,30.13,West,270,0.0,0.2,70,0.00,,,0.00,WUHU216HW,2013-03-21 09:05:00,
2013-03-21 04:10:00,4.1,-3.2,30.13,WNW,293,0.0,0.2,71,0.00,,,0.00,WUHU216HW,2013-03-21 09:10:00,
2013-03-21 04:15:00,4.0,-3.7,30.13,WNW,293,0.0,0.2,70,0.00,,,0.00,WUHU216HW,2013-03-21 09:15:00,
2013-03-21 04:20:00,4.0,-3.4,30.13,WNW,293,0.0,0.0,71,0.00,,,0.00,WUHU216HW,2013-03-21 09:20:00,
2013-03-21 04:25:00,3.8,-3.6,30.13,WNW,293,0.0,0.0,71,0.00,,,0.00,WUHU216HW,2013-03-21 09:25:00,
2013-03-21 04:30:00,3.2,-4.3,30.13,WNW,293,0.0,0.0,70,0.00,,,0.00,WUHU216HW,2013-03-21 09:30:00,
2013-03-21 04:35:00,2.7,-4.9,30.13,WNW,293,0.0,0.0,70,0.00,,,0.00,WUHU216HW,2013-03-21 09:35:00,
2013-03-21 04:40:00,2.2,-5.4,30.13,WNW,293,0.0,0.0,70,0.00,,,0.00,WUHU216HW,2013-03-21 09:40:00,
2013-03-21 04:45:00,2.0,-5.3,30.13,WNW,293,0.0,0.0,71,0.00,,,0.00,WUHU216HW,2013-03-21 09:45:00,
2013-03-21 04:50:00,2.2,-5.1,30.13,WNW,293,0.0,0.0,71,0.00,,,0.00,WUHU216HW,2013-03-21 09:50:00,
2013-03-21 04:55:00,2.0,-5.0,30.12,WNW,293,0.0,0.0,72,0.00,,,0.00,WUHU216HW,2013-03-21 09:55:00,
2013-03-21 05:00:00,2.2,-4.9,30.12,WNW,293,0.0,0.0,72,0.00,,,0.00,WUHU216HW,2013-03-21 10:00:00,
2013-03-21 05:05:00,2.0,-5.0,30.13,WNW,293,0.0,0.0,72,0.00,,,0.00,WUHU216HW,2013-03-21 10:05:00,
2013-03-21 05:10:00,1.6,-5.4,30.12,WNW,293,0.0,0.0,72,0.00,,,0.00,WUHU216HW,2013-03-21 10:10:00,
2013-03-21 05:15:00,1.3,-5.8,30.13,WNW,293,0.0,0.0,72,0.00,,,0.00,WUHU216HW,2013-03-21 10:15:00,
2013-03-21 05:20:00,1.4,-5.6,30.13,WNW,293,0.0,0.0,72,0.00,,,0.00,WUHU216HW,2013-03-21 10:20:00,
2013-03-21 05:25:00,1.4,-5.6,30.13,WNW,293,0.0,0.0,72,0.00,,,0.00,WUHU216HW,2013-03-21 10:25:00,
2013-03-21 05:30:00,1.4,-5.6,30.13,WNW,293,0.0,0.0,72,0.00,,,0.00,WUHU216HW,2013-03-21 10:30:00,
2013-03-21 05:35:00,1.4,-5.6,30.13,WNW,293,0.0,0.0,72,0.00,,,0.00,WUHU216HW,2013-03-21 10:35:00,
2013-03-21 05:40:00,1.3,-5.8,30.13,WNW,293,0.0,0.0,72,0.00,,,0.00,WUHU216HW,2013-03-21 10:40:00,
2013-03-21 05:45:00,1.1,-5.9,30.13,WNW,293,0.0,0.0,72,0.00,,,0.00,WUHU216HW,2013-03-21 10:45:00,
2013-03-21 05:50:00,0.9,-6.1,30.13,WNW,293,0.0,0.0,72,0.00,,,0.00,WUHU216HW,2013-03-21 10:50:00,
2013-03-21 05:55:00,0.5,-6.5,30.13,WNW,293,0.0,0.0,72,0.00,,,0.00,WUHU216HW,2013-03-21 10:55:00,
2013-03-21 06:00:00,0.2,-6.8,30.13,WNW,293,0.0,0.0,72,0.00,,,0.00,WUHU216HW,2013-03-21 11:00:00,
2013-03-21 06:05:00,0.0,-7.0,30.13,WNW,293,0.0,0.0,72,0.00,,,0.00,WUHU216HW,2013-03-21 11:05:00,
2013-03-21 06:10:00,-0.2,-7.2,30.13,WNW,293,0.0,0.0,72,0.00,,,0.00,WUHU216HW,2013-03-21 11:10:00,
2013-03-21 06:15:00,-0.4,-7.4,30.12,WNW,293,0.0,0.0,72,0.00,,,0.00,WUHU216HW,2013-03-21 11:15:00,
2013-03-21 06:20:00,-0.5,-7.5,30.13,WNW,293,0.0,0.0,72,0.00,,,0.00,WUHU216HW,2013-03-21 11:20:00,
2013-03-21 06:25:00,-0.9,-7.8,30.13,WNW,293,0.0,0.0,72,0.00,,,0.00,WUHU216HW,2013-03-21 11:25:00,
2013-03-21 06:30:00,-1.1,-7.7,30.12,WNW,293,0.0,0.0,73,0.00,,,0.00,WUHU216HW,2013-03-21 11:30:00,
2013-03-21 06:35:00,-1.1,-7.7,30.13,WNW,293,0.0,0.0,73,0.00,,,0.00,WUHU216HW,2013-03-21 11:35:00,
2013-03-21 06:40:00,-1.1,-7.7,30.13,WNW,293,0.0,0.0,73,0.00,,,0.00,WUHU216HW,2013-03-21 11:40:00,
2013-03-21 06:45:00,-1.1,-7.7,30.13,WNW,293,0.0,0.0,73,0.00,,,0.00,WUHU216HW,2013-03-21 11:45:00,
2013-03-21 06:50:00,-0.7,-7.1,30.13,WNW,293,0.0,0.0,74,0.00,,,0.00,WUHU216HW,2013-03-21 11:50:00,
2013-03-21 06:55:00,-0.5,-6.9,30.13,WNW,293,0.0,0.0,74,0.00,,,0.00,WUHU216HW,2013-03-21 11:55:00,
2013-03-21 07:00:00,-0.2,-6.3,30.13,WNW,293,0.0,0.0,75,0.00,,,0.00,WUHU216HW,2013-03-21 12:00:00,
2013-03-21 07:05:00,-0.2,-6.3,30.13,WNW,293,0.0,0.0,75,0.00,,,0.00,WUHU216HW,2013-03-21 12:05:00,
2013-03-21 07:10:00,-0.2,-6.3,30.13,WNW,293,0.0,0.0,75,0.00,,,0.00,WUHU216HW,2013-03-21 12:10:00,
2013-03-21 07:15:00,0.0,-6.1,30.13,WNW,293,0.0,0.0,75,0.00,,,0.00,WUHU216HW,2013-03-21 12:15:00,
2013-03-21 07:20:00,-0.2,-6.6,30.13,WNW,293,0.0,0.0,74,0.00,,,0.00,WUHU216HW,2013-03-21 12:20:00,
2013-03-21 07:25:00,-0.5,-6.9,30.13,WNW,293,0.0,0.0,74,0.00,,,0.00,WUHU216HW,2013-03-21 12:25:00,
2013-03-21 07:30:00,-0.5,-6.9,30.13,WNW,293,0.0,0.0,74,0.00,,,0.00,WUHU216HW,2013-03-21 12:30:00,
2013-03-21 07:35:00,-0.5,-6.9,30.13,WNW,293,0.0,0.0,74,0.00,,,0.00,WUHU216HW,2013-03-21 12:35:00,
2013-03-21 07:40:00,-0.7,-7.1,30.13,WNW,293,0.0,0.0,74,0.00,,,0.00,WUHU216HW,2013-03-21 12:40:00,
2013-03-21 07:45:00,-0.5,-6.9,30.13,WNW,293,0.0,0.0,74,0.00,,,0.00,WUHU216HW,2013-03-21 12:45:00,
2013-03-21 07:50:00,0.0,-6.1,30.13,WNW,293,0.0,0.0,75,0.00,,,0.00,WUHU216HW,2013-03-21 12:50:00,
2013-03-21 07:55:00,1.1,-4.6,30.13,WNW,293,0.0,0.0,77,0.00,,,0.00,WUHU216HW,2013-03-21 12:55:00,
2013-03-21 08:00:00,2.5,-2.9,30.13,WNW,293,0.0,0.0,78,0.00,,,0.00,WUHU216HW,2013-03-21 13:00:00,
2013-03-21 08:05:00,4.0,-1.4,30.13,WNW,293,0.0,0.0,78,0.00,,,0.00,WUHU216HW,2013-03-21 13:05:00,
2013-03-21 08:10:00,5.0,-0.7,30.13,West,270,0.0,0.0,77,0.00,,,0.00,WUHU216HW,2013-03-21 13:10:00,
2013-03-21 08:15:00,5.9,-0.1,30.14,West,270,0.0,0.0,76,0.00,,,0.00,WUHU216HW,2013-03-21 13:15:00,
2013-03-21 08:20:00,6.8,0.5,30.14,West,270,0.0,0.0,75,0.00,,,0.00,WUHU216HW,2013-03-21 13:20:00,
2013-03-21 08:25:00,7.9,1.6,30.14,West,270,0.0,0.0,75,0.00,,,0.00,WUHU216HW,2013-03-21 13:25:00,
2013-03-21 08:30:00,9.0,2.3,30.14,West,270,0.0,0.0,74,0.00,,,0.00,WUHU216HW,2013-03-21 13:30:00,
2013-03-21 08:35:00,9.7,2.7,30.14,West,270,0.0,0.0,73,0.00,,,0.00,WUHU216HW,2013-03-21 13:35:00,
2013-03-21 08:40:00,10.6,3.6,30.14,West,270,0.0,0.0,73,0.00,,,0.00,WUHU216HW,2013-03-21 13:40:00,
2013-03-21 08:45:00,11.2,4.2,30.14,WNW,293,0.0,0.0,73,0.00,,,0.00,WUHU216HW,2013-03-21 13:45:00,
2013-03-21 08:50:00,11.9,4.5,30.14,WNW,293,0.0,0.0,72,0.00,,,0.00,WUHU216HW,2013-03-21 13:50:00,
2013-03-21 08:55:00,12.6,5.0,30.14,East,90,0.0,0.4,71,0.00,,,0.00,WUHU216HW,2013-03-21 13:55:00,
2013-03-21 09:00:00,13.0,4.3,30.14,NE,45,0.4,0.9,68,0.00,,,0.00,WUHU216HW,2013-03-21 14:00:00,
2013-03-21 09:05:00,12.8,4.1,30.15,ENE,68,0.4,0.9,68,0.00,,,0.00,WUHU216HW,2013-03-21 14:05:00,
2013-03-21 09:10:00,13.1,4.2,30.14,SE,135,0.7,0.9,67,0.00,,,0.00,WUHU216HW,2013-03-21 14:10:00,
2013-03-21 09:15:00,13.9,5.0,30.14,NE,45,0.9,0.9,67,0.00,,,0.00,WUHU216HW,2013-03-21 14:15:00,
2013-03-21 09:20:00,14.6,5.6,30.14,NNE,23,0.0,0.9,67,0.00,,,0.00,WUHU216HW,2013-03-21 14:20:00,
2013-03-21 09:25:00,15.3,5.9,30.14,East,90,0.4,0.9,66,0.00,,,0.00,WUHU216HW,2013-03-21 14:25:00,
2013-03-21 09:30:00,16.2,6.0,30.14,ESE,113,0.4,1.1,64,0.00,,,0.00,WUHU216HW,2013-03-21 14:30:00,
2013-03-21 09:35:00,16.6,6.0,30.14,ESE,113,0.4,1.1,63,0.00,,,0.00,WUHU216HW,2013-03-21 14:35:00,
2013-03-21 09:40:00,18.4,8.1,30.14,SE,135,0.0,1.1,64,0.00,,,0.00,WUHU216HW,2013-03-21 14:40:00,
2013-03-21 09:45:00,20.2,9.2,30.14,WSW,248,0.7,1.1,62,0.00,,,0.00,WUHU216HW,2013-03-21 14:45:00,
2013-03-21 09:50:00,20.3,8.3,30.14,South,180,0.4,1.3,59,0.00,,,0.00,WUHU216HW,2013-03-21 14:50:00,
2013-03-21 09:55:00,21.8,10.0,30.13,South,180,0.2,1.3,60,0.00,,,0.00,WUHU216HW,2013-03-21 14:55:00,
2013-03-21 10:00:00,22.5,8.6,30.13,WSW,248,0.7,1.3,55,0.00,,,0.00,WUHU216HW,2013-03-21 15:00:00,
2013-03-21 10:05:00,22.7,8.8,30.13,WSW,248,1.1,1.3,55,0.00,,,0.00,WUHU216HW,2013-03-21 15:05:00,
2013-03-21 10:10:00,23.4,9.9,30.13,ESE,113,0.4,1.1,56,0.00,,,0.00,WUHU216HW,2013-03-21 15:10:00,
2013-03-21 10:15:00,22.3,7.3,30.13,SE,135,0.4,1.1,52,0.00,,,0.00,WUHU216HW,2013-03-21 15:15:00,
2013-03-21 10:20:00,22.9,8.2,30.13,South,180,0.2,1.1,53,0.00,,,0.00,WUHU216HW,2013-03-21 15:20:00,
2013-03-21 10:25:00,24.3,10.0,30.13,SSE,158,0.0,1.1,54,0.00,,,0.00,WUHU216HW,2013-03-21 15:25:00,
2013-03-21 10:30:00,24.8,8.8,30.13,WSW,248,0.9,1.8,50,0.00,,,0.00,WUHU216HW,2013-03-21 15:30:00,
2013-03-21 10:35:00,25.2,8.6,30.13,WSW,248,1.3,1.8,49,0.00,,,0.00,WUHU216HW,2013-03-21 15:35:00,
2013-03-21 10:40:00,24.7,7.7,30.13,WSW,248,1.1,1.6,48,0.00,,,0.00,WUHU216HW,2013-03-21 15:40:00,
2013-03-21 10:45:00,24.8,8.4,30.13,SE,135,0.9,1.3,49,0.00,,,0.00,WUHU216HW,2013-03-21 15:45:00,
2013-03-21 10:50:00,25.7,8.6,30.13,SE,135,0.2,1.6,48,0.00,,,0.00,WUHU216HW,2013-03-21 15:50:00,
2013-03-21 10:55:00,26.5,9.3,30.13,SW,225,0.0,1.8,48,0.00,,,0.00,WUHU216HW,2013-03-21 15:55:00,
2013-03-21 11:00:00,25.6,6.6,30.13,WSW,248,1.6,2.5,44,0.00,,,0.00,WUHU216HW,2013-03-21 16:00:00,
2013-03-21 11:05:00,25.6,7.6,30.13,WSW,248,0.2,2.5,46,0.00,,,0.00,WUHU216HW,2013-03-21 16:05:00,
2013-03-21 11:10:00,25.7,8.2,30.13,WSW,248,0.4,2.7,47,0.00,,,0.00,WUHU216HW,2013-03-21 16:10:00,
2013-03-21 11:15:00,27.5,10.4,30.13,SE,135,0.9,2.7,48,0.00,,,0.00,WUHU216HW,2013-03-21 16:15:00,
2013-03-21 11:20:00,28.6,9.9,30.12,SW,225,0.7,1.8,45,0.00,,,0.00,WUHU216HW,2013-03-21 16:20:00,
2013-03-21 11:25:00,28.4,8.7,30.13,SE,135,1.1,2.0,43,0.00,,,0.00,WUHU216HW,2013-03-21 16:25:00,
2013-03-21 11:30:00,28.8,9.0,30.12,WSW,248,1.3,2.5,43,0.00,,,0.00,WUHU216HW,2013-03-21 16:30:00,
2013-03-21 11:35:00,28.3,8.0,30.12,West,270,1.8,2.9,42,0.00,,,0.00,WUHU216HW,2013-03-21 16:35:00,
2013-03-21 11:40:00,26.8,6.8,30.12,West,270,1.6,3.1,42,0.00,,,0.00,WUHU216HW,2013-03-21 16:40:00,
2013-03-21 11:45:00,27.5,9.4,30.12,East,90,0.2,3.1,46,0.00,,,0.00,WUHU216HW,2013-03-21 16:45:00,
2013-03-21 11:50:00,29.9,11.0,30.12,NNW,338,0.7,2.9,45,0.00,,,0.00,WUHU216HW,2013-03-21 16:50:00,
2013-03-21 11:55:00,30.6,9.6,30.12,WSW,248,1.6,3.1,41,0.00,,,0.00,WUHU216HW,2013-03-21 16:55:00,
2013-03-21 12:00:00,28.3,7.0,30.13,West,270,1.8,3.6,40,0.00,,,0.00,WUHU216HW,2013-03-21 17:00:00,
2013-03-21 12:05:00,27.5,7.4,30.12,NW,315,1.1,3.6,42,0.00,,,0.00,WUHU216HW,2013-03-21 17:05:00,
2013-03-21 12:10:00,27.7,8.0,30.12,WSW,248,1.6,3.6,43,0.00,,,0.00,WUHU216HW,2013-03-21 17:10:00,
2013-03-21 12:15:00,28.3,8.6,30.12,NNW,338,1.6,2.9,43,0.01,,,0.01,WUHU216HW,2013-03-21 17:15:00,
2013-03-21 12:20:00,29.2,7.8,30.12,WNW,293,1.3,3.4,40,0.01,,,0.01,WUHU216HW,2013-03-21 17:20:00,
2013-03-21 12:25:00,29.3,9.0,30.12,NNW,338,0.7,3.4,42,0.01,,,0.01,WUHU216HW,2013-03-21 17:25:00,
2013-03-21 12:30:00,30.1,9.6,30.11,West,270,1.8,3.1,42,0.01,,,0.01,WUHU216HW,2013-03-21 17:30:00,
2013-03-21 12:35:00,29.3,8.0,30.11,SW,225,1.8,4.5,40,0.01,,,0.01,WUHU216HW,2013-03-21 17:35:00,
2013-03-21 12:40:00,29.9,9.0,30.11,WSW,248,4.0,4.5,41,0.01,,,0.01,WUHU216HW,2013-03-21 17:40:00,
2013-03-21 12:45:00,28.4,7.8,30.11,West,270,2.2,4.0,41,0.01,,,0.01,WUHU216HW,2013-03-21 17:45:00,
2013-03-21 12:50:00,28.1,7.9,30.11,SW,225,1.6,4.0,42,0.01,,,0.01,WUHU216HW,2013-03-21 17:50:00,
2013-03-21 12:55:00,29.9,10.0,30.11,SW,225,0.7,3.8,43,0.01,,,0.01,WUHU216HW,2013-03-21 17:55:00,
2013-03-21 13:00:00,30.4,7.8,30.11,West,270,3.8,4.0,38,0.01,,,0.01,WUHU216HW,2013-03-21 18:00:00,
2013-03-21 13:05:00,29.3,7.4,30.11,WSW,248,1.6,4.0,39,0.01,,,0.01,WUHU216HW,2013-03-21 18:05:00,
2013-03-21 13:10:00,29.9,9.6,30.11,WNW,293,3.1,4.0,42,0.00,,,0.01,WUHU216HW,2013-03-21 18:10:00,
2013-03-21 13:15:00,29.9,9.6,30.11,WNW,293,3.1,4.0,42,0.00,,,0.01,WUHU216HW,2013-03-21 18:15:00,
2013-03-21 14:00:00,32.0,11.4,30.10,SE,135,1.8,1.8,42,0.00,,,0.01,WUHU216HW,2013-03-21 19:00:00,
2013-03-21 14:05:00,31.3,10.8,30.10,WSW,248,1.8,4.0,42,0.00,,,0.01,WUHU216HW,2013-03-21 19:05:00,
2013-03-21 14:10:00,30.6,9.6,30.10,South,180,4.0,4.7,41,0.00,,,0.01,WUHU216HW,2013-03-21 19:10:00,
2013-03-21 14:15:00,31.0,11.0,30.10,SW,225,2.5,4.7,43,0.00,,,0.01,WUHU216HW,2013-03-21 19:15:00,
2013-03-21 14:20:00,30.2,9.8,30.10,WSW,248,2.5,4.3,42,0.00,,,0.01,WUHU216HW,2013-03-21 19:20:00,
2013-03-21 14:25:00,30.4,10.5,30.10,West,270,1.6,4.3,43,0.00,,,0.01,WUHU216HW,2013-03-21 19:25:00,
2013-03-21 14:30:00,29.9,10.0,30.09,WSW,248,4.7,4.9,43,0.01,,,0.02,WUHU216HW,2013-03-21 19:30:00,
2013-03-21 14:35:00,29.9,10.0,30.09,West,270,5.4,5.4,43,0.01,,,0.02,WUHU216HW,2013-03-21 19:35:00,
2013-03-21 14:40:00,30.1,10.2,30.09,West,270,3.1,5.4,43,0.01,,,0.02,WUHU216HW,2013-03-21 19:40:00,
2013-03-21 14:45:00,30.2,10.8,30.08,NE,45,0.4,5.4,44,0.01,,,0.02,WUHU216HW,2013-03-21 19:45:00,
2013-03-21 14:50:00,30.8,11.4,30.09,North,0,0.4,4.0,44,0.01,,,0.02,WUHU216HW,2013-03-21 19:50:00,
2013-03-21 14:55:00,31.9,11.3,30.08,WSW,248,2.5,4.0,42,0.01,,,0.02,WUHU216HW,2013-03-21 19:55:00,
2013-03-21 15:00:00,31.1,10.2,30.08,West,270,2.5,4.0,41,0.01,,,0.02,WUHU216HW,2013-03-21 20:00:00,
2013-03-21 15:05:00,31.9,11.8,30.08,NW,315,2.2,4.0,43,0.01,,,0.02,WUHU216HW,2013-03-21 20:05:00,
2013-03-21 15:10:00,31.9,11.3,30.08,SW,225,0.2,5.8,42,0.01,,,0.02,WUHU216HW,2013-03-21 20:10:00,
2013-03-21 15:15:00,32.9,12.2,30.08,SW,225,1.1,5.8,42,0.01,,,0.02,WUHU216HW,2013-03-21 20:15:00,
2013-03-21 15:20:00,34.0,12.7,30.08,NNW,338,0.2,4.3,41,0.01,,,0.02,WUHU216HW,2013-03-21 20:20:00,
2013-03-21 15:25:00,34.9,13.1,30.08,ENE,68,1.8,1.8,40,0.01,,,0.03,WUHU216HW,2013-03-21 20:25:00,
2013-03-21 15:30:00,33.8,11.4,30.08,NNE,23,1.8,4.0,39,0.01,,,0.03,WUHU216HW,2013-03-21 20:30:00,
2013-03-21 15:35:00,34.4,13.1,30.08,WSW,248,1.1,4.0,41,0.01,,,0.03,WUHU216HW,2013-03-21 20:35:00,
2013-03-21 15:40:00,35.8,12.5,30.08,WSW,248,1.3,2.7,38,0.01,,,0.03,WUHU216HW,2013-03-21 20:40:00,
2013-03-21 15:45:00,34.7,11.6,30.08,SSE,158,0.9,2.7,38,0.01,,,0.03,WUHU216HW,2013-03-21 20:45:00,
2013-03-21 15:50:00,35.1,13.2,30.08,East,90,1.6,2.0,40,0.01,,,0.03,WUHU216HW,2013-03-21 20:50:00,
2013-03-21 15:55:00,35.6,14.2,30.08,ENE,68,1.1,1.6,41,0.01,,,0.03,WUHU216HW,2013-03-21 20:55:00,
2013-03-21 16:00:00,36.0,12.7,30.08,WSW,248,0.4,2.2,38,0.01,,,0.03,WUHU216HW,2013-03-21 21:00:00,
2013-03-21 16:05:00,34.7,12.3,30.08,WSW,248,1.1,4.5,39,0.01,,,0.03,WUHU216HW,2013-03-21 21:05:00,
2013-03-21 16:10:00,34.2,12.4,30.08,WSW,248,2.2,4.5,40,0.01,,,0.03,WUHU216HW,2013-03-21 21:10:00,
2013-03-21 16:15:00,35.3,12.7,30.08,SSE,158,1.3,3.1,39,0.01,,,0.03,WUHU216HW,2013-03-21 21:15:00,
2013-03-21 16:20:00,36.4,12.4,30.08,WNW,293,2.5,3.4,37,0.01,,,0.03,WUHU216HW,2013-03-21 21:20:00,
2013-03-21 16:25:00,35.3,11.4,30.07,WNW,293,1.1,6.3,37,0.00,,,0.03,WUHU216HW,2013-03-21 21:25:00,
2013-03-21 16:30:00,34.6,11.4,30.08,NW,315,0.4,6.3,38,0.00,,,0.03,WUHU216HW,2013-03-21 21:30:00,
2013-03-21 16:35:00,34.2,11.8,30.07,WNW,293,0.2,5.4,39,0.00,,,0.03,WUHU216HW,2013-03-21 21:35:00,
2013-03-21 16:40:00,34.2,11.2,30.07,West,270,2.5,4.7,38,0.00,,,0.03,WUHU216HW,2013-03-21 21:40:00,
2013-03-21 16:45:00,33.8,11.4,30.07,WSW,248,4.7,4.7,39,0.00,,,0.03,WUHU216HW,2013-03-21 21:45:00,
2013-03-21 16:50:00,33.1,11.4,30.07,NNW,338,1.8,4.7,40,0.00,,,0.03,WUHU216HW,2013-03-21 21:50:00,
2013-03-21 16:55:00,34.2,12.4,30.07,West,270,3.1,4.0,40,0.00,,,0.03,WUHU216HW,2013-03-21 21:55:00,
2013-03-21 17:00:00,34.0,11.6,30.07,SSW,203,2.5,4.5,39,0.00,,,0.03,WUHU216HW,2013-03-21 22:00:00,
2013-03-21 17:05:00,32.9,10.0,30.07,WSW,248,3.4,4.7,38,0.00,,,0.03,WUHU216HW,2013-03-21 22:05:00,
2013-03-21 17:10:00,32.8,11.1,30.07,SW,225,1.6,4.7,40,0.00,,,0.03,WUHU216HW,2013-03-21 22:10:00,
2013-03-21 17:15:00,33.7,11.9,30.07,WSW,248,2.5,3.4,40,0.00,,,0.03,WUHU216HW,2013-03-21 22:15:00,
2013-03-21 17:20:00,34.4,12.5,30.07,West,270,4.9,4.9,40,0.00,,,0.03,WUHU216HW,2013-03-21 22:20:00,
2013-03-21 17:25:00,34.4,12.5,30.07,East,90,0.7,4.9,40,0.00,,,0.03,WUHU216HW,2013-03-21 22:25:00,
2013-03-21 17:30:00,35.3,12.7,30.07,WSW,248,2.5,2.5,39,0.00,,,0.03,WUHU216HW,2013-03-21 22:30:00,
2013-03-21 17:35:00,34.6,11.4,30.07,NNW,338,0.7,3.1,38,0.00,,,0.03,WUHU216HW,2013-03-21 22:35:00,
2013-03-21 17:40:00,34.6,12.7,30.07,ENE,68,0.2,3.1,40,0.00,,,0.03,WUHU216HW,2013-03-21 22:40:00,
2013-03-21 17:45:00,34.9,11.8,30.06,WNW,293,1.1,2.9,38,0.00,,,0.03,WUHU216HW,2013-03-21 22:45:00,
2013-03-21 17:50:00,34.2,11.8,30.07,NW,315,0.4,2.9,39,0.00,,,0.03,WUHU216HW,2013-03-21 22:50:00,
2013-03-21 17:55:00,34.6,13.2,30.06,WNW,293,0.0,2.5,41,0.00,,,0.03,WUHU216HW,2013-03-21 22:55:00,
2013-03-21 18:00:00,35.6,13.1,30.07,WNW,293,0.9,1.3,39,0.00,,,0.03,WUHU216HW,2013-03-21 23:00:00,
2013-03-21 18:05:00,35.5,12.3,30.07,NW,315,1.6,2.9,38,0.00,,,0.03,WUHU216HW,2013-03-21 23:05:00,
2013-03-21 18:10:00,34.0,11.6,30.07,NW,315,0.9,3.1,39,0.00,,,0.03,WUHU216HW,2013-03-21 23:10:00,
2013-03-21 18:15:00,33.5,11.7,30.07,WSW,248,2.0,3.4,40,0.00,,,0.03,WUHU216HW,2013-03-21 23:15:00,
2013-03-21 18:20:00,32.0,11.0,30.07,SSE,158,0.4,3.4,41,0.00,,,0.03,WUHU216HW,2013-03-21 23:20:00,
2013-03-21 18:25:00,31.3,10.3,30.07,SW,225,1.1,2.9,41,0.00,,,0.03,WUHU216HW,2013-03-21 23:25:00,
2013-03-21 18:30:00,31.0,10.4,30.07,WNW,293,1.1,2.9,42,0.00,,,0.03,WUHU216HW,2013-03-21 23:30:00,
2013-03-21 18:35:00,30.4,10.5,30.06,NE,45,0.4,2.0,43,0.00,,,0.03,WUHU216HW,2013-03-21 23:35:00,
2013-03-21 18:40:00,29.7,10.4,30.07,West,270,2.2,2.9,44,0.00,,,0.03,WUHU216HW,2013-03-21 23:40:00,
2013-03-21 18:45:00,28.8,10.1,30.07,North,0,1.8,3.4,45,0.00,,,0.03,WUHU216HW,2013-03-21 23:45:00,
2013-03-21 18:50:00,28.3,10.1,30.07,West,270,1.8,3.4,46,0.00,,,0.03,WUHU216HW,2013-03-21 23:50:00,
2013-03-21 18:55:00,27.4,9.7,30.07,West,270,0.9,3.1,47,0.00,,,0.03,WUHU216HW,2013-03-21 23:55:00,
2013-03-21 19:00:00,27.5,10.4,30.07,NNW,338,0.0,3.1,48,0.00,,,0.03,WUHU216HW,2013-03-22 00:00:00,
2013-03-21 19:05:00,27.0,9.8,30.07,NW,315,0.9,3.4,48,0.00,,,0.03,WUHU216HW,2013-03-22 00:05:00,
2013-03-21 19:10:00,26.8,9.6,30.07,SSW,203,0.4,3.4,48,0.00,,,0.03,WUHU216HW,2013-03-22 00:10:00,
2013-03-21 19:15:00,26.6,9.5,30.07,WNW,293,0.4,2.5,48,0.00,,,0.03,WUHU216HW,2013-03-22 00:15:00,
2013-03-21 19:20:00,25.7,9.2,30.07,West,270,2.0,2.5,49,0.00,,,0.03,WUHU216HW,2013-03-22 00:20:00,
2013-03-21 19:25:00,24.5,8.5,30.07,West,270,0.4,2.5,50,0.00,,,0.03,WUHU216HW,2013-03-22 00:25:00,
2013-03-21 19:30:00,23.8,8.6,30.07,West,270,0.9,2.2,52,0.00,,,0.03,WUHU216HW,2013-03-22 00:30:00,
2013-03-21 19:35:00,23.4,8.3,30.07,West,270,0.4,2.2,52,0.00,,,0.03,WUHU216HW,2013-03-22 00:35:00,
2013-03-21 19:40:00,22.9,8.2,30.07,NW,315,0.2,1.3,53,0.00,,,0.03,WUHU216HW,2013-03-22 00:40:00,
2013-03-21 19:45:00,22.5,8.6,30.07,West,270,0.7,1.1,55,0.00,,,0.03,WUHU216HW,2013-03-22 00:45:00,
2013-03-21 19:50:00,22.3,8.1,30.08,West,270,0.7,1.1,54,0.00,,,0.03,WUHU216HW,2013-03-22 00:50:00,
2013-03-21 19:55:00,22.0,8.2,30.08,West,270,0.0,1.1,55,0.00,,,0.03,WUHU216HW,2013-03-22 00:55:00,
2013-03-21 20:00:00,21.6,7.8,30.08,WSW,248,0.4,0.9,55,0.00,,,0.03,WUHU216HW,2013-03-22 01:00:00,
2013-03-21 20:05:00,21.2,7.5,30.08,West,270,0.0,0.9,55,0.00,,,0.03,WUHU216HW,2013-03-22 01:05:00,
2013-03-21 20:10:00,21.1,8.1,30.08,WSW,248,0.7,0.9,57,0.00,,,0.03,WUHU216HW,2013-03-22 01:10:00,
2013-03-21 20:15:00,20.9,7.9,30.08,WNW,293,0.0,0.9,57,0.00,,,0.03,WUHU216HW,2013-03-22 01:15:00,
2013-03-21 20:20:00,20.5,7.6,30.08,WNW,293,0.2,1.1,57,0.00,,,0.03,WUHU216HW,2013-03-22 01:20:00,
2013-03-21 20:25:00,20.3,7.8,30.08,West,270,0.4,1.1,58,0.00,,,0.03,WUHU216HW,2013-03-22 01:25:00,
2013-03-21 20:30:00,20.2,8.1,30.08,West,270,0.4,1.3,59,0.00,,,0.03,WUHU216HW,2013-03-22 01:30:00,
2013-03-21 20:35:00,20.0,8.3,30.08,West,270,1.6,1.6,60,0.00,,,0.03,WUHU216HW,2013-03-22 01:35:00,
2013-03-21 20:40:00,20.0,8.7,30.08,WNW,293,0.4,2.2,61,0.00,,,0.03,WUHU216HW,2013-03-22 01:40:00,
2013-03-21 20:45:00,19.8,7.8,30.08,South,180,0.2,2.2,59,0.00,,,0.03,WUHU216HW,2013-03-22 01:45:00,
2013-03-21 20:50:00,19.6,7.6,30.08,NE,45,0.4,0.4,59,0.00,,,0.03,WUHU216HW,2013-03-22 01:50:00,
2013-03-21 20:55:00,19.3,6.8,30.08,WSW,248,0.0,0.4,58,0.00,,,0.03,WUHU216HW,2013-03-22 01:55:00,
2013-03-21 21:00:00,19.1,6.7,30.08,WSW,248,0.0,0.4,58,0.00,,,0.03,WUHU216HW,2013-03-22 02:00:00,
2013-03-21 21:05:00,18.5,6.1,30.08,West,270,0.0,0.4,58,0.00,,,0.03,WUHU216HW,2013-03-22 02:05:00,
2013-03-21 21:10:00,18.4,6.4,30.08,WNW,293,0.0,0.4,59,0.00,,,0.03,WUHU216HW,2013-03-22 02:10:00,
2013-03-21 21:15:00,18.2,6.2,30.08,East,90,0.2,0.4,59,0.00,,,0.03,WUHU216HW,2013-03-22 02:15:00,
2013-03-21 21:20:00,18.0,6.8,30.08,WNW,293,0.2,0.9,61,0.00,,,0.03,WUHU216HW,2013-03-22 02:20:00,
2013-03-21 21:25:00,18.4,8.1,30.08,WSW,248,1.1,1.1,64,0.00,,,0.03,WUHU216HW,2013-03-22 02:25:00,
2013-03-21 21:30:00,18.4,8.1,30.08,West,270,0.7,1.6,64,0.00,,,0.03,WUHU216HW,2013-03-22 02:30:00,
2013-03-21 21:35:00,18.4,8.1,30.08,West,270,1.1,1.6,64,0.00,,,0.03,WUHU216HW,2013-03-22 02:35:00,
2013-03-21 21:40:00,18.4,8.1,30.09,North,0,0.2,1.3,64,0.00,,,0.03,WUHU216HW,2013-03-22 02:40:00,
2013-03-21 21:45:00,18.0,7.1,30.09,WNW,293,0.2,1.3,62,0.00,,,0.03,WUHU216HW,2013-03-22 02:45:00,
2013-03-21 21:50:00,17.8,7.3,30.09,NW,315,0.0,1.1,63,0.00,,,0.03,WUHU216HW,2013-03-22 02:50:00,
2013-03-21 21:55:00,17.6,6.9,30.09,NW,315,0.2,1.1,62,0.00,,,0.03,WUHU216HW,2013-03-22 02:55:00,
2013-03-21 22:00:00,17.6,6.9,30.09,NW,315,0.0,0.9,62,0.00,,,0.03,WUHU216HW,2013-03-22 03:00:00,
2013-03-21 22:05:00,17.6,6.9,30.09,South,180,0.4,0.4,62,0.00,,,0.03,WUHU216HW,2013-03-22 03:05:00,
2013-03-21 22:10:00,17.5,6.9,30.09,West,270,0.4,0.7,63,0.00,,,0.03,WUHU216HW,2013-03-22 03:10:00,
2013-03-21 22:15:00,17.5,7.3,30.10,WNW,293,0.2,0.7,64,0.00,,,0.03,WUHU216HW,2013-03-22 03:15:00,
2013-03-21 22:20:00,17.3,7.5,30.10,WNW,293,0.4,0.9,65,0.00,,,0.03,WUHU216HW,2013-03-22 03:20:00,
2013-03-21 22:25:00,17.3,7.5,30.10,WSW,248,0.2,0.9,65,0.00,,,0.03,WUHU216HW,2013-03-22 03:25:00,
2013-03-21 22:30:00,16.9,6.8,30.10,West,270,0.0,0.7,64,0.00,,,0.03,WUHU216HW,2013-03-22 03:30:00,
2013-03-21 22:35:00,16.6,6.4,30.10,West,270,0.0,0.4,64,0.00,,,0.03,WUHU216HW,2013-03-22 03:35:00,
2013-03-21 22:40:00,16.4,6.2,30.10,West,270,0.0,0.7,64,0.00,,,0.03,WUHU216HW,2013-03-22 03:40:00,
2013-03-21 22:45:00,16.2,6.0,30.10,West,270,0.2,0.7,64,0.00,,,0.03,WUHU216HW,2013-03-22 03:45:00,
2013-03-21 22:50:00,15.7,5.2,30.10,West,270,0.0,0.4,63,0.00,,,0.03,WUHU216HW,2013-03-22 03:50:00,
2013-03-21 22:55:00,15.1,4.7,30.10,West,270,0.0,0.0,63,0.00,,,0.03,WUHU216HW,2013-03-22 03:55:00,
2013-03-21 23:00:00,14.8,4.4,30.10,West,270,0.0,0.0,63,0.00,,,0.03,WUHU216HW,2013-03-22 04:00:00,
2013-03-21 23:01:00,14.8,4.7,30.10,West,270,0.0,0.0,64,0.00,,,0.03,WUHU216HW,2013-03-22 04:01:00,
2013-03-21 23:02:00,14.8,4.7,30.10,West,270,0.0,0.0,64,0.00,,,0.03,WUHU216HW,2013-03-22 04:02:00,
2013-03-21 23:07:00,14.8,6.1,30.10,WNW,293,0.4,0.7,68,0.00,,,0.03,WUHU216HW,2013-03-22 04:07:00,
2013-03-21 23:12:00,15.5,7.1,30.10,West,270,0.7,0.9,69,0.00,,,0.03,WUHU216HW,2013-03-22 04:12:00,
2013-03-21 23:17:00,15.7,6.9,30.10,WNW,293,0.2,0.9,68,0.00,,,0.03,WUHU216HW,2013-03-22 04:17:00,
2013-03-21 23:22:00,15.7,6.2,30.10,NNW,338,0.7,0.7,66,0.00,,,0.03,WUHU216HW,2013-03-22 04:22:00,
2013-03-21 23:27:00,15.5,6.8,30.10,West,270,1.1,1.1,68,0.00,,,0.03,WUHU216HW,2013-03-22 04:27:00,
2013-03-21 23:32:00,15.7,6.9,30.10,West,270,0.4,1.1,68,0.00,,,0.03,WUHU216HW,2013-03-22 04:32:00,
2013-03-21 23:37:00,15.5,6.4,30.10,West,270,0.7,1.1,67,0.00,,,0.03,WUHU216HW,2013-03-22 04:37:00,
2013-03-21 23:42:00,15.5,6.8,30.10,WSW,248,0.4,1.6,68,0.00,,,0.03,WUHU216HW,2013-03-22 04:42:00,
2013-03-21 23:47:00,15.5,7.1,30.10,NW,315,0.2,1.6,69,0.00,,,0.03,WUHU216HW,2013-03-22 04:47:00,
2013-03-21 23:52:00,15.5,6.4,30.10,West,270,0.0,1.1,67,0.00,,,0.03,WUHU216HW,2013-03-22 04:52:00,
2013-03-21 23:57:00,15.1,6.0,30.10,West,270,0.4,0.4,67,0.00,,,0.03,WUHU216HW,2013-03-22 04:57:00,